createdAt,value
2022-09-30T00:04:37.032Z,98887.06
2022-09-30T00:09:38.760Z,98889.03
2022-09-30T00:14:40.404Z,98874.25
2022-09-30T00:19:42.437Z,98878.53
2022-09-30T00:24:44.018Z,98871.72
2022-09-30T00:29:45.773Z,98872.84
2022-09-30T00:34:47.390Z,98879.41
2022-09-30T00:39:49.079Z,98890.91
2022-09-30T00:44:54.383Z,98885.66
2022-09-30T00:49:59.892Z,98886.41
2022-09-30T00:55:05.901Z,98882.97
2022-09-30T01:00:08.265Z,98883.72
2022-09-30T01:05:11.732Z,98877.94
2022-09-30T01:10:13.428Z,98884.66
2022-09-30T01:15:15.340Z,98885.38
2022-09-30T01:20:27.527Z,98889.50
2022-09-30T01:25:55.018Z,98889.47
2022-09-30T01:31:24.843Z,98879.56
2022-09-30T01:36:46.712Z,98889.59
2022-09-30T01:41:54.659Z,98883.66
2022-09-30T01:47:08.885Z,98888.72
2022-09-30T01:52:23.868Z,98895.38
2022-09-30T01:57:31.905Z,98896.22
2022-09-30T02:02:41.228Z,98885.44
2022-09-30T02:07:49.920Z,98894.81
2022-09-30T02:13:03.399Z,98884.06
2022-09-30T02:18:22.492Z,98885.69
2022-09-30T02:23:29.085Z,98884.81
2022-09-30T02:28:30.928Z,98887.25
2022-09-30T02:33:38.298Z,98895.47
2022-09-30T02:38:46.304Z,98899.75
2022-09-30T02:43:49.297Z,98895.56
2022-09-30T02:49:08.566Z,98902.22
2022-09-30T02:54:15.829Z,98906.31
2022-09-30T02:59:18.049Z,98907.25
2022-09-30T03:04:24.800Z,98903.16
2022-09-30T03:09:27.303Z,98908.88
2022-09-30T03:14:54.202Z,98906.44
2022-09-30T03:20:07.824Z,98908.91
2022-09-30T03:25:27.404Z,98909.72
2022-09-30T03:30:32.624Z,98913.06
2022-09-30T03:35:43.398Z,98914.78
2022-09-30T03:40:57.861Z,98917.25
2022-09-30T03:46:27.020Z,98917.28
2022-09-30T03:51:30.049Z,98929.13
2022-09-30T03:56:33.465Z,98936.69
2022-09-30T04:01:35.145Z,98931.63
2022-09-30T04:06:37.262Z,98939.22
2022-09-30T04:11:38.972Z,98948.47
2022-09-30T04:16:40.682Z,98948.53
2022-09-30T04:21:42.463Z,98951.03
2022-09-30T04:26:44.086Z,98951.03
2022-09-30T04:31:45.837Z,98956.94
2022-09-30T04:36:47.503Z,98967.94
2022-09-30T04:41:49.075Z,98969.66
2022-09-30T04:46:51.273Z,98976.38
2022-09-30T04:51:52.846Z,98974.72
2022-09-30T04:56:54.417Z,98989.09
2022-09-30T05:01:56.045Z,98994.94
2022-09-30T05:06:57.808Z,99002.59
2022-09-30T05:11:59.437Z,99002.69
2022-09-30T05:17:02.160Z,99012.78
2022-09-30T05:22:03.737Z,99022.84
2022-09-30T05:27:05.521Z,99032.16
2022-09-30T05:32:08.009Z,99038.16
2022-09-30T05:37:09.685Z,99051.72
2022-09-30T05:42:13.992Z,99053.44
2022-09-30T05:47:15.874Z,99062.78
2022-09-30T05:52:17.448Z,99072.88
2022-09-30T05:57:19.080Z,99079.56
2022-09-30T06:02:21.296Z,99087.09
2022-09-30T06:07:23.328Z,99094.63
2022-09-30T06:12:28.771Z,99103.84
2022-09-30T06:17:30.497Z,99118.13
2022-09-30T06:22:36.173Z,99131.56
2022-09-30T06:27:38.309Z,99135.78
2022-09-30T06:32:40.394Z,99141.69
2022-09-30T06:37:42.088Z,99144.16
2022-09-30T06:42:43.887Z,99157.63
2022-09-30T06:47:57.857Z,99158.44
2022-09-30T06:53:02.952Z,99174.38
2022-09-30T06:58:13.776Z,99173.56
2022-09-30T07:03:26.540Z,99175.25
2022-09-30T07:08:31.574Z,99186.97
2022-09-30T07:13:33.415Z,99189.50
2022-09-30T07:18:35.087Z,99186.97
2022-09-30T07:23:36.867Z,99197.06
2022-09-30T07:28:39.550Z,99200.44
2022-09-30T07:33:41.929Z,99213.91
2022-09-30T07:38:43.614Z,99217.22
2022-09-30T07:43:46.675Z,99220.53
2022-09-30T07:48:51.789Z,99213.84
2022-09-30T07:53:56.375Z,99223.88
2022-09-30T07:59:01.097Z,99224.69
2022-09-30T08:04:06.455Z,99241.50
2022-09-30T08:09:09.022Z,99252.34
2022-09-30T08:14:19.567Z,99256.50
2022-09-30T08:19:23.368Z,99258.16
2022-09-30T08:24:26.664Z,99276.69
2022-09-30T08:29:53.876Z,99285.91
2022-09-30T08:34:50.369Z,99290.16
2022-09-30T08:39:51.936Z,99301.13
2022-09-30T08:45:00.612Z,99299.44
2022-09-30T08:50:17.453Z,99311.25
2022-09-30T08:55:24.123Z,99312.84
2022-09-30T09:00:26.186Z,99311.06
2022-09-30T09:05:49.972Z,99308.44
2022-09-30T09:11:41.183Z,99299.91
2022-09-30T09:17:15.403Z,99297.31
2022-09-30T09:22:21.225Z,99305.63
2022-09-30T09:27:32.786Z,99312.22
2022-09-30T09:32:35.776Z,99315.50
2022-09-30T09:38:09.477Z,99311.97
2022-09-30T09:43:23.787Z,99316.97
2022-09-30T09:48:29.203Z,99337.13
2022-09-30T09:53:33.789Z,99337.06
2022-09-30T09:58:35.469Z,99330.31
2022-09-30T10:03:38.247Z,99337.88
2022-09-30T10:08:54.057Z,99341.38
2022-09-30T10:14:00.681Z,99345.53
2022-09-30T10:19:19.908Z,99373.38
2022-09-30T10:24:31.547Z,99377.50
2022-09-30T10:29:35.555Z,99381.66
2022-09-30T10:34:40.988Z,99401.84
2022-09-30T10:39:44.686Z,99397.59
2022-09-30T10:44:51.730Z,99407.66
2022-09-30T10:50:11.522Z,99412.59
2022-09-30T10:55:19.181Z,99425.22
2022-09-30T11:00:26.064Z,99419.06
2022-09-30T11:05:31.687Z,99417.28
2022-09-30T11:11:11.365Z,99419.69
2022-09-30T11:16:30.097Z,99428.78
2022-09-30T11:21:42.424Z,99438.16
2022-09-30T11:27:14.633Z,99453.34
2022-09-30T11:32:40.856Z,99461.69
2022-09-30T11:37:51.492Z,99457.22
2022-09-30T11:42:57.028Z,99450.34
2022-09-30T11:48:16.887Z,99463.59
2022-09-30T11:53:24.550Z,99448.94
2022-09-30T11:58:41.362Z,99460.66
2022-09-30T12:03:55.035Z,99474.75
2022-09-30T12:09:03.954Z,99463.88
2022-09-30T12:14:16.166Z,99474.84
2022-09-30T12:19:29.052Z,99480.75
2022-09-30T12:24:47.667Z,99466.31
2022-09-30T12:30:15.210Z,99482.16
2022-09-30T12:35:54.359Z,99481.28
2022-09-30T12:41:02.612Z,99475.41
2022-09-30T12:46:04.557Z,99476.28
2022-09-30T12:51:07.829Z,99484.69
2022-09-30T12:56:13.025Z,99472.00
2022-09-30T13:01:16.749Z,99488.63
2022-09-30T13:06:21.283Z,99493.59
2022-09-30T13:11:36.306Z,99497.75
2022-09-30T13:17:10.237Z,99509.19
2022-09-30T13:22:20.884Z,99518.41
2022-09-30T13:27:37.485Z,99521.75
2022-09-30T13:32:41.204Z,99509.69
2022-09-30T13:37:42.778Z,99507.84
2022-09-30T13:42:51.496Z,99511.06
2022-09-30T13:48:12.014Z,99508.34
2022-09-30T13:53:21.000Z,99504.16
2022-09-30T13:58:34.922Z,99495.31
2022-09-30T14:04:17.201Z,99486.94
2022-09-30T14:09:19.054Z,99491.00
2022-09-30T14:14:39.392Z,99483.47
2022-09-30T14:19:58.362Z,99487.19
2022-09-30T14:25:01.163Z,99486.19
2022-09-30T14:30:11.459Z,99498.66
2022-09-30T14:35:23.113Z,99476.84
2022-09-30T14:40:30.722Z,99480.06
2022-09-30T14:45:35.670Z,99476.44
2022-09-30T14:50:46.510Z,99475.53
2022-09-30T14:55:49.433Z,99476.47
2022-09-30T15:01:00.709Z,99477.34
2022-09-30T15:06:02.679Z,99485.69
2022-09-30T15:11:04.399Z,99491.59
2022-09-30T15:16:22.456Z,99495.06
2022-09-30T15:21:27.294Z,99492.66
2022-09-30T15:26:29.722Z,99507.09
2022-09-30T15:31:32.527Z,99521.50
2022-09-30T15:36:37.357Z,99521.50
2022-09-30T15:41:41.429Z,99515.66
2022-09-30T15:47:02.356Z,99510.06
2022-09-30T15:52:40.076Z,99523.59
2022-09-30T15:57:49.882Z,99530.41
2022-09-30T16:02:52.806Z,99521.22
2022-09-30T16:07:54.488Z,99529.75
2022-09-30T16:12:56.115Z,99526.31
2022-09-30T16:17:57.977Z,99539.03
2022-09-30T16:23:02.453Z,99545.84
2022-09-30T16:28:12.341Z,99554.34
2022-09-30T16:33:15.395Z,99565.47
2022-09-30T16:38:18.259Z,99564.72
2022-09-30T16:43:19.885Z,99576.69
2022-09-30T16:48:21.561Z,99571.75
2022-09-30T16:53:23.344Z,99576.88
2022-09-30T16:58:25.000Z,99594.59
2022-09-30T17:03:27.092Z,99589.63
2022-09-30T17:08:28.834Z,99587.19
2022-09-30T17:13:30.525Z,99602.38
2022-09-30T17:18:32.430Z,99593.94
2022-09-30T17:23:34.356Z,99594.81
2022-09-30T17:28:36.545Z,99587.25
2022-09-30T17:33:40.028Z,99597.44
2022-09-30T17:38:41.777Z,99594.19
2022-09-30T17:43:45.529Z,99596.13
2022-09-30T17:48:47.369Z,99596.94
2022-09-30T17:53:49.285Z,99605.38
2022-09-30T17:58:51.210Z,99607.16
2022-09-30T18:03:53.565Z,99613.88
2022-09-30T18:08:55.972Z,99613.06
2022-09-30T18:13:59.655Z,99612.22
2022-09-30T18:19:03.348Z,99620.69
2022-09-30T18:24:06.509Z,99633.44
2022-09-30T18:29:08.064Z,99634.34
2022-09-30T18:34:13.133Z,99631.00
2022-09-30T18:39:15.414Z,99628.53
2022-09-30T18:44:17.101Z,99621.00
2022-09-30T18:49:18.722Z,99622.69
2022-09-30T18:54:20.907Z,99626.88
2022-09-30T18:59:24.018Z,99634.44
2022-09-30T19:04:25.965Z,99632.78
2022-09-30T19:09:28.406Z,99644.59
2022-09-30T19:14:30.730Z,99642.03
2022-09-30T19:19:36.068Z,99648.81
2022-09-30T19:24:37.968Z,99649.69
2022-09-30T19:29:40.551Z,99647.19
2022-09-30T19:34:42.800Z,99640.47
2022-09-30T19:39:46.232Z,99642.19
2022-09-30T19:44:48.117Z,99631.25
2022-09-30T19:49:49.721Z,99631.25
2022-09-30T19:54:52.234Z,99623.69
2022-09-30T19:59:53.841Z,99625.44
2022-09-30T20:04:55.504Z,99619.56
2022-09-30T20:09:57.210Z,99620.38
2022-09-30T20:15:17.372Z,99620.38
2022-09-30T20:20:38.436Z,99611.94
2022-09-30T20:25:41.688Z,99614.50
2022-09-30T20:30:45.537Z,99598.50
2022-09-30T20:35:48.100Z,99614.59
2022-09-30T20:40:58.626Z,99616.25
2022-09-30T20:46:02.424Z,99609.53
2022-09-30T20:51:10.016Z,99624.78
2022-09-30T20:56:15.181Z,99629.88
2022-09-30T21:01:19.956Z,99616.47
2022-09-30T21:06:26.901Z,99613.97
2022-09-30T21:11:28.537Z,99620.72
2022-09-30T21:16:31.064Z,99634.19
2022-09-30T21:21:33.150Z,99639.28
2022-09-30T21:26:35.585Z,99640.19
2022-09-30T21:31:38.147Z,99628.44
2022-09-30T21:36:40.802Z,99629.28
2022-09-30T21:41:44.713Z,99644.44
2022-09-30T21:46:48.665Z,99642.78
2022-09-30T21:51:53.039Z,99640.34
2022-09-30T21:56:54.578Z,99629.41
2022-09-30T22:01:56.530Z,99617.59
2022-09-30T22:06:58.242Z,99613.44
2022-09-30T22:12:08.700Z,99615.13
2022-09-30T22:17:10.420Z,99616.84
2022-09-30T22:22:12.396Z,99615.13
2022-09-30T22:27:14.187Z,99615.13
2022-09-30T22:32:15.796Z,99631.09
2022-09-30T22:37:36.006Z,99628.56
2022-09-30T22:42:37.830Z,99628.53
2022-09-30T22:47:39.417Z,99631.94
2022-09-30T22:52:41.052Z,99620.97
2022-09-30T22:57:43.589Z,99624.38
2022-09-30T23:02:45.221Z,99625.22
2022-09-30T23:07:47.053Z,99617.63
2022-09-30T23:12:51.392Z,99608.34
2022-09-30T23:17:53.184Z,99598.31
2022-09-30T23:22:54.921Z,99599.16
2022-09-30T23:27:56.885Z,99615.97
2022-09-30T23:32:58.580Z,99636.13
2022-09-30T23:38:00.320Z,99637.81
2022-09-30T23:43:02.063Z,99635.28
2022-09-30T23:48:04.266Z,99630.25
2022-09-30T23:53:06.203Z,99621.00
2022-09-30T23:58:08.429Z,99637.78
